Time;durP1;ratioP1;P1;durP2;ratioP2;P2;SDS_P1;SDS_P2;PMS_P1;PMS_P2;Temp;Humidity;BMP_temperature;BMP_pressure;BME280_temperature;BME280_humidity;BME280_pressure;Samples;Min_cycle;Max_cycle;Signal;HPM_P1;HPM_P2
2022/09/19 00:00:40;;;;;;;5.90;1.80;;;;;;;9.03;100.00;101630.44;5031273;28;20346;-74
2022/09/19 00:03:06;;;;;;;13.85;2.28;;;;;;;9.06;100.00;101634.63;5033729;28;20049;-75
2022/09/19 00:05:31;;;;;;;10.90;2.40;;;;;;;9.03;100.00;101633.16;5034015;28;20140;-72
2022/09/19 00:07:56;;;;;;;10.52;3.15;;;;;;;9.01;100.00;101624.41;5032207;28;20479;-73
2022/09/19 00:10:22;;;;;;;13.80;2.60;;;;;;;9.01;100.00;101628.97;5016125;28;20022;-73
2022/09/19 00:12:47;;;;;;;16.05;2.70;;;;;;;8.99;100.00;101622.94;5033479;28;20092;-74
2022/09/19 00:15:12;;;;;;;14.82;2.65;;;;;;;8.99;100.00;101628.31;5033536;28;20023;-72
2022/09/19 00:17:38;;;;;;;7.93;2.33;;;;;;;8.89;100.00;101633.22;5032657;28;20120;-76
2022/09/19 00:20:04;;;;;;;8.60;2.25;;;;;;;8.93;100.00;101629.13;5032406;28;20053;-76
2022/09/19 00:22:30;;;;;;;8.48;2.20;;;;;;;8.89;100.00;101627.81;5033529;28;20025;-74
2022/09/19 00:24:55;;;;;;;6.85;2.10;;;;;;;8.85;100.00;101624.69;5033561;28;20478;-74
2022/09/19 00:27:25;;;;;;;9.07;1.95;;;;;;;8.88;100.00;101629.69;5031951;28;20080;-72
2022/09/19 00:29:52;;;;;;;5.53;1.92;;;;;;;8.85;100.00;101624.69;5015641;28;20383;-76
2022/09/19 00:32:18;;;;;;;7.10;2.20;;;;;;;8.83;100.00;101634.81;5033163;28;20466;-74
2022/09/19 00:34:47;;;;;;;8.65;2.10;;;;;;;8.83;100.00;101632.97;5033320;28;20073;-72
2022/09/19 00:37:14;;;;;;;8.25;2.20;;;;;;;8.78;100.00;101631.88;5030380;28;20377;-73
2022/09/19 00:39:40;;;;;;;8.10;2.10;;;;;;;8.75;100.00;101633.09;5032019;28;20022;-72
2022/09/19 00:42:12;;;;;;;10.82;2.28;;;;;;;8.76;100.00;101639.34;5015340;28;20036;-75
2022/09/19 00:44:37;;;;;;;9.95;2.22;;;;;;;8.73;100.00;101635.16;5033172;28;20529;-73
2022/09/19 00:47:09;;;;;;;11.65;2.25;;;;;;;8.72;100.00;101638.88;5031625;28;20100;-74
2022/09/19 00:49:38;;;;;;;12.88;2.60;;;;;;;8.67;100.00;101639.47;5033413;28;20109;-75
2022/09/19 00:52:11;;;;;;;14.63;2.30;;;;;;;8.67;100.00;101636.75;5031926;28;20032;-74
2022/09/19 00:54:41;;;;;;;10.27;2.20;;;;;;;8.65;100.00;101637.97;5033024;28;20027;-72
2022/09/19 00:57:09;;;;;;;11.68;2.42;;;;;;;8.66;100.00;101631.56;5031502;28;20457;-75
2022/09/19 00:59:37;;;;;;;11.35;2.30;;;;;;;8.66;100.00;101637.78;5032999;28;20098;-74
2022/09/19 01:02:04;;;;;;;8.68;1.95;;;;;;;8.65;100.00;101644.22;5030176;28;20499;-76
2022/09/19 01:04:34;;;;;;;6.13;1.90;;;;;;;8.67;100.00;101634.06;5032887;28;20415;-72
2022/09/19 01:07:35;;;;;;;10.98;2.20;;;;;;;8.70;100.00;101640.94;5031533;28;20018;-74
2022/09/19 01:10:38;;;;;;;9.73;2.47;;;;;;;8.73;100.00;101642.44;5031570;28;20456;-74
2022/09/19 01:13:30;;;;;;;8.50;2.20;;;;;;;8.67;100.00;101642.16;5031267;28;20026;-71
2022/09/19 01:16:02;;;;;;;;;;;;;;;8.81;100.00;101642.28;5031860;28;20025;-74
2022/09/19 01:18:51;;;;;;;12.30;2.33;;;;;;;8.58;100.00;101643.31;5031694;28;19918;-73
2022/09/19 01:21:40;;;;;;;11.18;2.50;;;;;;;8.58;100.00;101643.31;5031681;28;20047;-72
2022/09/19 01:24:42;;;;;;;10.32;2.40;;;;;;;8.64;100.00;101652.53;5032441;28;20079;-73
2022/09/19 01:27:19;;;;;;;14.02;2.35;;;;;;;8.64;100.00;101661.44;5031181;28;20079;-72
2022/09/19 01:29:49;;;;;;;12.63;2.50;;;;;;;8.63;100.00;101662.47;5031114;28;20342;-75
2022/09/19 01:32:22;;;;;;;8.07;2.38;;;;;;;8.57;100.00;101663.22;5032345;28;20017;-72
2022/09/19 01:34:52;;;;;;;10.98;2.30;;;;;;;8.62;100.00;101663.50;5032513;28;20120;-74
2022/09/19 01:37:30;;;;;;;6.05;1.80;;;;;;;8.64;100.00;101664.13;5031706;28;20025;-73
2022/09/19 01:39:58;;;;;;;7.82;2.35;;;;;;;8.57;100.00;101654.31;5032540;28;20025;-74
2022/09/19 01:42:24;;;;;;;8.68;2.03;;;;;;;8.60;100.00;101668.25;5030893;28;20030;-74
2022/09/19 01:44:52;;;;;;;8.43;1.95;;;;;;;8.58;100.00;101662.22;5032386;28;20449;-73
2022/09/19 01:47:26;;;;;;;10.68;2.22;;;;;;;8.57;100.00;101668.63;5030910;28;20473;-73
2022/09/19 01:49:57;;;;;;;10.55;2.22;;;;;;;8.56;100.00;101666.13;5030808;28;20063;-73
2022/09/19 01:52:52;;;;;;;11.15;2.28;;;;;;;8.54;100.00;101669.00;5031865;28;20433;-71
2022/09/19 01:55:22;;;;;;;12.38;2.70;;;;;;;8.53;100.00;101670.06;5031989;28;20075;-75
2022/09/19 01:58:07;;;;;;;8.20;2.55;;;;;;;8.55;100.00;101668.00;5030240;28;20057;-73
2022/09/19 02:00:38;;;;;;;6.28;2.00;;;;;;;8.50;100.00;101678.53;5029908;28;20021;-72
2022/09/19 02:03:25;;;;;;;8.52;2.13;;;;;;;8.51;100.00;101675.66;5032244;28;20025;-74
2022/09/19 02:06:12;;;;;;;9.50;2.28;;;;;;;8.56;100.00;101669.66;5014498;28;20036;-74
2022/09/19 02:08:44;;;;;;;9.25;2.17;;;;;;;8.53;100.00;101667.34;5012014;28;20056;-74
2022/09/19 02:11:15;;;;;;;8.75;2.40;;;;;;;8.53;100.00;101672.75;5032281;28;20037;-73
2022/09/19 02:13:45;;;;;;;6.78;2.13;;;;;;;8.51;100.00;101664.00;5032147;28;20063;-75
2022/09/19 02:16:14;;;;;;;13.10;2.15;;;;;;;8.49;100.00;101674.16;5014033;28;20044;-75
2022/09/19 02:18:53;;;;;;;10.75;2.40;;;;;;;8.52;100.00;101671.91;5030839;28;20087;-73
2022/09/19 02:21:25;;;;;;;13.07;2.42;;;;;;;8.48;100.00;101669.78;5030649;28;20037;-72
2022/09/19 02:23:55;;;;;;;10.05;2.17;;;;;;;8.43;100.00;101674.88;5032086;28;20025;-74
2022/09/19 02:26:22;;;;;;;7.95;2.13;;;;;;;8.46;100.00;101677.22;5030514;28;20032;-75
2022/09/19 02:28:54;;;;;;;10.45;2.20;;;;;;;8.41;100.00;101668.81;5013408;28;20364;-75
2022/09/19 02:31:21;;;;;;;10.07;2.58;;;;;;;8.43;100.00;101677.59;5031801;28;20560;-75
2022/09/19 02:33:47;;;;;;;13.13;2.85;;;;;;;8.42;100.00;101684.00;5032007;28;20124;-75
2022/09/19 02:36:22;;;;;;;10.32;2.28;;;;;;;8.40;100.00;101686.88;5031514;28;20036;-76
2022/09/19 02:39:12;;;;;;;6.95;1.63;;;;;;;8.36;100.00;101682.06;5030830;28;20555;-72
2022/09/19 02:41:48;;;;;;;9.02;2.20;;;;;;;8.39;100.00;101681.69;5033828;28;20037;-72
2022/09/19 02:44:20;;;;;;;9.27;2.13;;;;;;;8.38;100.00;101693.47;5035246;28;20060;-72
2022/09/19 02:46:55;;;;;;;11.45;2.22;;;;;;;8.39;100.00;101697.84;5017562;28;20453;-74
2022/09/19 02:49:28;;;;;;;7.70;1.95;;;;;;;8.39;100.00;101692.47;5035065;28;20026;-71
2022/09/19 02:51:58;;;;;;;14.98;2.30;;;;;;;8.32;100.00;101693.22;5035284;28;20030;-73
2022/09/19 02:54:29;;;;;;;12.02;2.30;;;;;;;8.37;100.00;101695.34;5034789;28;20425;-73
2022/09/19 02:56:59;;;;;;;9.23;2.05;;;;;;;8.37;100.00;101689.13;5016837;28;20037;-75
2022/09/19 02:59:29;;;;;;;12.85;2.20;;;;;;;8.38;100.00;101688.94;5034903;28;20056;-73
2022/09/19 03:02:01;;;;;;;9.60;2.13;;;;;;;8.39;100.00;101697.84;5032607;28;20030;-75
2022/09/19 03:04:32;;;;;;;8.52;2.00;;;;;;;8.36;100.00;101693.66;5034627;28;20111;-75
2022/09/19 03:07:09;;;;;;;15.35;3.00;;;;;;;8.37;100.00;101695.34;5033951;28;20029;-72
2022/09/19 03:09:34;;;;;;;11.13;2.05;;;;;;;8.37;100.00;101698.06;5015331;28;20030;-74
2022/09/19 03:12:11;;;;;;;9.63;2.58;;;;;;;8.38;100.00;101698.88;5014952;28;20472;-74
2022/09/19 03:14:37;;;;;;;10.30;2.10;;;;;;;8.32;100.00;101693.22;5015173;28;20017;-72
2022/09/19 03:17:04;;;;;;;14.45;2.50;;;;;;;8.33;100.00;101694.91;5015179;28;20033;-74
2022/09/19 03:19:32;;;;;;;16.15;2.85;;;;;;;8.33;100.00;101694.06;5019089;28;20021;-73
2022/09/19 03:21:58;;;;;;;9.27;1.80;;;;;;;8.34;100.00;101699.25;5034760;28;20053;-75
2022/09/19 03:24:26;;;;;;;9.90;1.77;;;;;;;8.31;100.00;101693.41;5034472;28;20029;-75
2022/09/19 03:26:51;;;;;;;8.93;2.10;;;;;;;8.31;100.00;101696.13;5034223;28;20029;-74
2022/09/19 03:29:17;;;;;;;7.00;2.13;;;;;;;8.28;100.00;101693.78;5033465;28;20029;-72
2022/09/19 03:31:44;;;;;;;8.25;2.03;;;;;;;8.31;100.00;101701.50;5034579;28;20021;-76
2022/09/19 03:34:12;;;;;;;9.45;1.88;;;;;;;8.26;100.00;101699.38;5034304;28;20021;-72
2022/09/19 03:36:38;;;;;;;10.77;1.95;;;;;;;8.27;100.00;101705.59;5034780;28;20057;-73
2022/09/19 03:39:03;;;;;;;15.85;2.58;;;;;;;8.30;100.00;101705.22;5033801;28;20052;-72
2022/09/19 03:41:30;;;;;;;14.13;2.90;;;;;;;8.30;100.00;101699.81;5034498;28;20493;-72
2022/09/19 03:44:00;;;;;;;9.27;2.17;;;;;;;8.31;100.00;101696.94;5034339;28;20039;-74
2022/09/19 03:46:26;;;;;;;12.23;2.40;;;;;;;8.28;100.00;101697.31;5016223;28;20018;-72
2022/09/19 03:48:52;;;;;;;14.75;2.92;;;;;;;8.29;100.00;101693.59;5015606;28;20036;-74
2022/09/19 03:51:18;;;;;;;12.10;2.30;;;;;;;8.28;100.00;101696.50;5033573;28;20025;-76
2022/09/19 03:53:43;;;;;;;9.60;2.38;;;;;;;8.31;100.00;101702.34;5034112;28;20104;-76
2022/09/19 03:56:13;;;;;;;11.07;2.47;;;;;;;8.32;100.00;101698.63;5034056;28;20112;-73
2022/09/19 03:58:39;;;;;;;9.98;2.50;;;;;;;8.32;100.00;101687.00;5033330;28;20030;-74
2022/09/19 04:01:08;;;;;;;12.65;2.58;;;;;;;8.37;100.00;101700.75;5031582;28;20375;-72
2022/09/19 04:03:35;;;;;;;13.32;2.95;;;;;;;8.37;100.00;101697.22;5033597;28;20067;-75
2022/09/19 04:06:01;;;;;;;10.93;1.95;;;;;;;8.33;100.00;101703.00;5033949;28;20033;-74
2022/09/19 04:08:27;;;;;;;11.55;2.15;;;;;;;8.39;100.00;101704.06;5032713;28;20116;-73
2022/09/19 04:10:53;;;;;;;10.35;2.03;;;;;;;8.41;100.00;101711.97;5033849;28;20104;-73
2022/09/19 04:13:20;;;;;;;9.02;2.40;;;;;;;8.40;100.00;101710.31;5033516;28;20030;-73
2022/09/19 04:15:46;;;;;;;8.57;1.90;;;;;;;8.37;100.00;101711.53;5033908;28;20079;-72
2022/09/19 04:18:11;;;;;;;6.97;1.85;;;;;;;8.40;100.00;101715.72;5032403;28;20033;-72
2022/09/19 04:20:38;;;;;;;10.70;2.30;;;;;;;8.41;100.00;101717.38;5033539;28;20032;-71
2022/09/19 04:23:04;;;;;;;10.15;2.40;;;;;;;8.39;100.00;101725.66;5033551;28;20036;-73
2022/09/19 04:25:34;;;;;;;10.15;1.92;;;;;;;8.39;100.00;101720.25;5033194;28;20026;-75
2022/09/19 04:28:02;;;;;;;11.77;1.80;;;;;;;8.38;100.00;101718.59;5032639;28;20041;-73
2022/09/19 04:30:27;;;;;;;10.85;2.00;;;;;;;8.38;100.00;101721.31;5033019;28;20029;-71
2022/09/19 04:32:52;;;;;;;7.65;1.83;;;;;;;8.40;100.00;101726.50;5033168;28;20123;-76
2022/09/19 04:35:19;;;;;;;9.98;2.10;;;;;;;8.37;100.00;101726.88;5032937;28;20043;-74
2022/09/19 04:37:44;;;;;;;8.38;1.98;;;;;;;8.34;100.00;101730.78;5031872;28;20025;-71
2022/09/19 04:40:10;;;;;;;8.13;2.00;;;;;;;8.38;100.00;101725.84;5032115;28;20040;-74
2022/09/19 04:42:36;;;;;;;11.07;2.25;;;;;;;8.40;100.00;101729.22;5032727;28;20025;-73
2022/09/19 04:45:02;;;;;;;10.02;2.47;;;;;;;8.45;100.00;101733.03;5033146;28;20048;-74
2022/09/19 04:47:32;;;;;;;12.70;2.40;;;;;;;8.41;100.00;101729.03;5014232;28;20037;-73
2022/09/19 04:49:59;;;;;;;13.75;2.92;;;;;;;8.46;100.00;101733.88;5015396;28;20029;-71
2022/09/19 04:52:26;;;;;;;9.73;2.10;;;;;;;8.46;100.00;101731.19;5030965;28;20029;-72
2022/09/19 04:54:54;;;;;;;9.43;2.00;;;;;;;8.47;100.00;101740.91;5031127;28;20061;-73
2022/09/19 04:57:20;;;;;;;12.60;3.00;;;;;;;8.47;100.00;101738.22;5032065;28;20021;-74
2022/09/19 04:59:45;;;;;;;11.15;2.42;;;;;;;8.46;100.00;101737.41;5013243;28;20021;-72
2022/09/19 05:02:10;;;;;;;10.35;2.30;;;;;;;8.45;100.00;101745.69;5017238;28;20028;-76
2022/09/19 05:04:37;;;;;;;15.57;2.90;;;;;;;8.48;100.00;101745.31;5011692;28;20127;-75
2022/09/19 05:07:03;;;;;;;18.52;2.72;;;;;;;8.47;100.00;101738.22;5015151;28;20354;-72
2022/09/19 05:09:28;;;;;;;9.82;2.55;;;;;;;8.51;100.00;101750.31;5031353;28;20087;-74
2022/09/19 05:11:55;;;;;;;10.98;2.20;;;;;;;8.53;100.00;101742.88;5013634;28;20028;-74
2022/09/19 05:14:21;;;;;;;11.93;2.95;;;;;;;8.60;100.00;101751.03;5031266;28;20029;-73
2022/09/19 05:16:49;;;;;;;10.40;2.25;;;;;;;8.61;100.00;101748.16;5032629;28;20408;-72
2022/09/19 05:19:15;;;;;;;9.73;2.05;;;;;;;8.64;100.00;101749.66;5032655;28;20017;-71
2022/09/19 05:21:40;;;;;;;14.15;2.63;;;;;;;8.65;100.00;101754.84;5031218;28;20464;-74
2022/09/19 05:24:06;;;;;;;11.25;2.63;;;;;;;8.68;100.00;101753.63;5023566;28;20041;-75
2022/09/19 05:26:31;;;;;;;10.88;2.50;;;;;;;8.72;100.00;101756.78;5012504;28;20033;-72
2022/09/19 05:28:56;;;;;;;9.85;2.40;;;;;;;8.71;100.00;101757.81;4995256;28;20125;-75
2022/09/19 05:31:22;;;;;;;11.25;2.45;;;;;;;8.76;100.00;101764.31;5012335;28;20112;-72
2022/09/19 05:33:47;;;;;;;14.13;3.10;;;;;;;8.77;100.00;101759.75;5018707;28;20037;-73
2022/09/19 05:36:13;;;;;;;9.70;2.20;;;;;;;8.80;100.00;101772.84;5032554;28;20022;-74
2022/09/19 05:38:39;;;;;;;10.35;2.75;;;;;;;8.77;100.00;101766.00;5032303;28;20017;-72
2022/09/19 05:41:06;;;;;;;8.45;2.13;;;;;;;8.79;100.00;101769.34;5032536;28;20029;-72
2022/09/19 05:43:32;;;;;;;14.70;2.50;;;;;;;8.78;100.00;101766.81;5031121;28;20029;-74
2022/09/19 05:45:58;;;;;;;11.80;2.45;;;;;;;8.80;100.00;101770.16;5032388;28;20063;-75
2022/09/19 05:48:24;;;;;;;8.15;2.22;;;;;;;8.79;100.00;101774.72;5032176;28;20118;-74
2022/09/19 05:50:51;;;;;;;9.52;2.55;;;;;;;8.83;100.00;101775.16;5032447;28;20033;-72
2022/09/19 05:56:02;;;;;;;11.65;2.58;;;;;;;8.79;100.00;101771.22;5026042;28;20055;-73
2022/09/19 05:58:28;;;;;;;7.85;2.08;;;;;;;8.81;100.00;101771.84;5030524;28;20037;-73
2022/09/19 06:00:54;;;;;;;13.57;2.85;;;;;;;8.80;100.00;101771.00;5029841;28;20034;-73
2022/09/19 06:03:21;;;;;;;10.50;2.33;;;;;;;8.80;100.00;101776.41;5031121;28;20464;-72
2022/09/19 06:05:50;;;;;;;12.52;2.70;;;;;;;8.83;100.00;101781.44;5030285;28;20033;-75
2022/09/19 06:08:17;;;;;;;9.50;2.30;;;;;;;8.80;100.00;101780.94;5031969;28;20516;-72
2022/09/19 06:10:44;;;;;;;11.55;3.47;;;;;;;8.85;100.00;101784.75;5014177;28;20025;-75
2022/09/19 06:13:21;;;;;;;11.98;3.70;;;;;;;8.87;100.00;101784.56;5031259;28;20060;-75
2022/09/19 06:15:47;;;;;;;17.17;4.20;;;;;;;8.93;100.00;101791.06;5014666;28;20040;-75
2022/09/19 06:18:12;;;;;;;16.58;4.85;;;;;;;8.96;100.00;101790.69;4998696;28;20036;-73
2022/09/19 06:20:41;;;;;;;14.98;3.72;;;;;;;9.01;100.00;101793.63;5016052;28;20030;-73
2022/09/19 06:23:10;;;;;;;13.65;2.50;;;;;;;9.06;100.00;101793.91;4998114;28;20021;-75
2022/09/19 06:25:37;;;;;;;14.98;3.10;;;;;;;9.13;100.00;101791.28;5033989;28;20025;-73
2022/09/19 06:28:05;;;;;;;13.57;2.88;;;;;;;9.21;100.00;101794.69;5036076;28;20030;-74
2022/09/19 06:30:31;;;;;;;14.48;3.15;;;;;;;9.27;100.00;101803.91;5035461;28;20489;-75
2022/09/19 06:32:57;;;;;;;13.70;4.20;;;;;;;9.30;100.00;101803.50;5035430;28;20021;-74
2022/09/19 06:35:25;;;;;;;15.07;3.53;;;;;;;9.36;100.00;101804.56;5034539;28;20480;-76
2022/09/19 06:37:57;;;;;;;17.30;3.67;;;;;;;9.42;100.00;101802.97;5017602;28;20120;-74
2022/09/19 06:40:22;;;;;;;12.00;3.10;;;;;;;9.45;100.00;101803.44;5033995;28;20368;-76
2022/09/19 06:42:47;;;;;;;14.15;3.03;;;;;;;9.47;100.00;101805.94;5035499;28;20059;-74
2022/09/19 06:45:13;;;;;;;19.77;3.30;;;;;;;9.52;100.00;101808.91;5034479;28;20029;-72
2022/09/19 06:47:38;;;;;;;14.25;2.97;;;;;;;9.56;100.00;101812.88;5035349;28;20028;-72
2022/09/19 06:50:04;;;;;;;11.48;2.65;;;;;;;9.62;100.00;101816.66;5035581;28;20017;-72
2022/09/19 06:52:30;;;;;;;16.48;3.08;;;;;;;9.64;100.00;101817.31;5017168;28;20065;-72
2022/09/19 06:54:55;;;;;;;13.43;3.13;;;;;;;9.70;100.00;101822.75;5034409;28;20053;-72
2022/09/19 06:57:21;;;;;;;13.63;3.00;;;;;;;9.76;100.00;101821.97;5035239;28;20030;-75
2022/09/19 06:59:46;;;;;;;17.38;3.65;;;;;;;9.81;100.00;101826.78;5034929;28;20030;-74
2022/09/19 07:02:12;;;;;;;16.80;3.42;;;;;;;9.86;100.00;101827.06;5032930;28;20342;-73
2022/09/19 07:04:38;;;;;;;13.77;3.10;;;;;;;9.96;100.00;101829.41;5033866;28;20052;-72
2022/09/19 07:07:03;;;;;;;11.75;2.90;;;;;;;10.08;100.00;101835.13;5027587;28;20029;-72
2022/09/19 07:09:29;;;;;;;16.35;3.15;;;;;;;10.16;100.00;101834.13;5014999;28;20519;-72
2022/09/19 07:11:56;;;;;;;14.88;3.08;;;;;;;10.21;100.00;101839.78;5015161;28;20026;-74
2022/09/19 07:14:24;;;;;;;15.20;2.63;;;;;;;10.33;100.00;101845.47;5023726;28;20099;-78
2022/09/19 07:16:50;;;;;;;16.70;3.05;;;;;;;10.40;100.00;101847.22;5017101;28;20453;-75
2022/09/19 07:19:15;;;;;;;17.40;3.22;;;;;;;10.43;100.00;101846.81;5034633;28;20025;-77
2022/09/19 07:21:40;;;;;;;15.88;3.03;;;;;;;10.52;100.00;101846.66;5034646;28;20072;-73
2022/09/19 07:24:06;;;;;;;11.55;2.65;;;;;;;10.57;100.00;101852.31;5033599;28;20448;-72
2022/09/19 07:26:32;;;;;;;17.05;3.50;;;;;;;10.60;100.00;101854.63;5033397;28;20021;-72
2022/09/19 07:28:57;;;;;;;16.50;2.65;;;;;;;10.61;100.00;101853.56;5034966;28;20071;-72
2022/09/19 07:31:23;;;;;;;13.07;3.13;;;;;;;10.65;100.00;101862.97;5034593;28;20028;-72
2022/09/19 07:33:48;;;;;;;13.85;2.80;;;;;;;10.64;100.00;101872.97;5030560;28;20068;-73
2022/09/19 07:36:14;;;;;;;13.68;2.35;;;;;;;10.69;100.00;101872.34;5014712;28;20519;-72
2022/09/19 07:38:39;;;;;;;13.50;3.00;;;;;;;10.69;100.00;101872.34;5014488;28;20030;-72
2022/09/19 07:41:05;;;;;;;16.55;2.65;;;;;;;10.71;100.00;101874.88;5014666;28;20104;-72
2022/09/19 07:43:30;;;;;;;12.43;2.60;;;;;;;10.75;100.00;101865.28;4996576;28;20376;-72
2022/09/19 07:45:55;;;;;;;13.82;2.53;;;;;;;10.77;100.00;101874.88;5034200;28;20025;-72
2022/09/19 07:48:21;;;;;;;15.88;3.08;;;;;;;10.84;100.00;101877.63;5034178;28;20087;-72
2022/09/19 07:50:49;;;;;;;19.23;3.28;;;;;;;10.84;100.00;101882.19;5033993;28;20025;-72
2022/09/19 07:53:21;;;;;;;17.77;2.45;;;;;;;10.90;100.00;101878.69;5016054;28;20036;-72
2022/09/19 07:55:53;;;;;;;;;;;;;;;10.97;100.00;101880.38;5033039;28;20033;-72
2022/09/19 07:58:24;;;;;;;13.00;2.47;;;;;;;10.95;100.00;101882.47;5034090;28;19908;-71
2022/09/19 08:00:50;;;;;;;12.32;2.65;;;;;;;10.94;100.00;101875.38;5031281;28;20022;-71
2022/09/19 08:03:17;;;;;;;14.75;2.80;;;;;;;10.98;100.00;101878.53;5033934;28;20140;-71
2022/09/19 08:05:52;;;;;;;17.90;3.90;;;;;;;11.02;100.00;101887.94;5032286;28;20049;-70
2022/09/19 08:08:20;;;;;;;13.52;3.20;;;;;;;11.05;100.00;101887.53;5033945;28;20488;-70
2022/09/19 08:10:45;;;;;;;19.48;3.58;;;;;;;11.08;100.00;101881.69;5015619;28;20547;-70
2022/09/19 08:13:13;;;;;;;19.52;3.25;;;;;;;11.12;100.00;101893.78;5033404;28;20104;-70
2022/09/19 08:15:39;;;;;;;10.90;2.40;;;;;;;11.14;100.00;101891.72;5026909;28;20037;-70
2022/09/19 08:18:18;;;;;;;13.10;2.70;;;;;;;11.21;100.00;101899.03;5033613;28;20092;-71
2022/09/19 08:20:45;;;;;;;13.68;2.58;;;;;;;11.26;100.00;101901.94;5033371;28;20017;-71
2022/09/19 08:23:13;;;;;;;13.25;3.00;;;;;;;11.31;100.00;101902.19;5033575;28;20017;-71
2022/09/19 08:25:40;;;;;;;14.27;2.53;;;;;;;11.35;100.00;101900.72;5032218;28;20072;-70
2022/09/19 08:28:05;;;;;;;22.60;3.95;;;;;;;11.38;100.00;101908.44;5031591;28;20033;-70
2022/09/19 08:30:36;;;;;;;16.08;3.45;;;;;;;11.43;100.00;101899.69;5033220;28;20087;-71
2022/09/19 08:33:03;;;;;;;13.88;2.80;;;;;;;11.47;100.00;101917.22;5030814;28;20025;-72
2022/09/19 08:35:30;;;;;;;14.82;3.42;;;;;;;11.53;100.00;101906.41;5031750;28;20021;-68
2022/09/19 08:37:58;;;;;;;15.55;3.17;;;;;;;11.64;100.00;101906.81;5015592;28;20079;-69
2022/09/19 08:40:28;;;;;;;13.43;2.60;;;;;;;11.71;100.00;101915.81;5029577;28;20053;-68
2022/09/19 08:42:54;;;;;;;20.02;2.58;;;;;;;11.82;100.00;101915.22;5009106;28;20049;-68
2022/09/19 08:45:33;;;;;;;11.18;2.58;;;;;;;11.97;100.00;101920.47;5033041;28;20017;-68
2022/09/19 08:48:03;;;;;;;11.55;2.45;;;;;;;12.06;100.00;101918.38;5032935;28;20033;-69
2022/09/19 08:50:34;;;;;;;12.98;2.67;;;;;;;12.13;100.00;101912.97;5031784;28;20037;-69
2022/09/19 08:53:04;;;;;;;16.90;2.90;;;;;;;12.12;100.00;101920.25;5024579;28;20037;-68
2022/09/19 08:55:33;;;;;;;17.48;2.63;;;;;;;12.09;100.00;101917.94;5031404;28;20060;-67
2022/09/19 08:58:04;;;;;;;11.80;2.40;;;;;;;12.12;100.00;101920.25;5030175;28;20025;-69
2022/09/19 09:00:38;;;;;;;17.13;2.65;;;;;;;12.22;100.00;101917.13;5022459;28;20358;-69
2022/09/19 09:03:13;;;;;;;11.30;2.40;;;;;;;12.28;100.00;101915.47;5031509;28;20029;-69
2022/09/19 09:05:43;;;;;;;12.18;2.22;;;;;;;12.41;100.00;101923.59;5036664;28;20053;-69
2022/09/19 09:08:31;;;;;;;11.70;2.13;;;;;;;12.49;100.00;101908.97;5012702;28;20149;-69
2022/09/19 09:11:25;;;;;;;12.23;2.75;;;;;;;12.63;100.00;101907.84;5029085;28;20037;-70
2022/09/19 09:14:04;;;;;;;15.60;2.35;;;;;;;12.78;100.00;101921.19;5031540;28;20479;-70
2022/09/19 09:17:08;;;;;;;9.80;2.30;;;;;;;12.90;100.00;101922.19;5032040;28;20599;-70
2022/09/19 09:19:57;;;;;;;11.30;1.92;;;;;;;13.03;100.00;101909.59;4987006;28;20045;-70
2022/09/19 09:22:28;;;;;;;12.32;2.03;;;;;;;13.12;100.00;101911.06;4979267;28;20109;-70
2022/09/19 09:25:07;;;;;;;8.82;1.92;;;;;;;13.19;100.00;101914.56;4997942;28;20092;-70
2022/09/19 09:27:39;;;;;;;14.68;2.30;;;;;;;13.30;100.00;101916.59;5012299;28;20080;-70
2022/09/19 09:30:16;;;;;;;11.90;2.10;;;;;;;13.39;100.00;101919.09;5019159;28;20025;-69
2022/09/19 09:32:46;;;;;;;9.98;2.58;;;;;;;13.43;100.00;101910.28;5032331;28;20124;-69
2022/09/19 09:35:26;;;;;;;15.48;3.08;;;;;;;13.46;100.00;101915.28;5032477;28;20347;-68
2022/09/19 09:38:13;;;;;;;10.88;2.10;;;;;;;13.54;100.00;101916.94;5031074;28;20096;-72
2022/09/19 09:43:52;;;;;;;9.05;1.73;;;;;;;13.75;100.00;101909.44;5030789;28;20044;-70
2022/09/19 09:46:24;;;;;;;14.45;2.20;;;;;;;13.78;95.95;101915.31;5039834;28;20025;-70
2022/09/19 09:48:52;;;;;;;10.55;2.10;;;;;;;13.91;93.88;101922.53;5050836;28;20368;-70
2022/09/19 09:51:39;;;;;;;11.45;1.92;;;;;;;14.00;96.22;101921.19;5050638;28;20021;-70
2022/09/19 09:57:14;;;;;;;11.73;2.30;;;;;;;14.11;94.68;101919.63;5032993;28;20128;-70
2022/09/19 10:05:55;;;;;;;14.18;2.58;;;;;;;14.32;93.85;101921.13;5035694;28;20098;-69
2022/09/19 10:08:33;;;;;;;9.40;1.77;;;;;;;14.32;90.45;101907.50;5036112;28;20468;-69
2022/09/19 10:11:11;;;;;;;10.63;1.83;;;;;;;14.18;98.11;101919.59;5035109;28;20037;-69
2022/09/19 10:13:45;;;;;;;8.32;2.10;;;;;;;14.23;78.84;101924.38;5020273;28;20030;-69
2022/09/19 10:16:17;;;;;;;6.25;1.50;;;;;;;14.21;79.93;101919.13;5035845;28;20045;-70
2022/09/19 10:18:45;;;;;;;;;;;;;;;14.26;89.16;101922.00;5036171;28;20017;-71
2022/09/19 10:21:11;;;;;;;7.45;1.55;;;;;;;14.26;81.18;101929.34;5035082;28;19908;-69
2022/09/19 10:23:37;;;;;;;9.18;1.60;;;;;;;14.28;76.78;101930.81;5035456;28;20040;-69
2022/09/19 10:26:06;;;;;;;9.32;1.70;;;;;;;14.34;76.08;101931.78;5034660;28;20017;-68
2022/09/19 10:28:41;;;;;;;10.73;1.77;;;;;;;14.31;80.47;101932.22;5035759;28;20036;-69
2022/09/19 10:31:23;;;;;;;8.70;1.70;;;;;;;14.32;82.06;101931.19;5033681;28;20025;-69
2022/09/19 10:33:50;;;;;;;12.13;2.25;;;;;;;14.31;85.55;101938.53;5035460;28;20034;-69
2022/09/19 10:36:22;;;;;;;10.77;1.85;;;;;;;14.36;85.75;101935.97;5035683;28;20030;-70
2022/09/19 10:38:59;;;;;;;9.55;2.15;;;;;;;14.41;82.98;101935.28;5035709;28;20217;-69
2022/09/19 10:41:28;;;;;;;10.82;1.73;;;;;;;14.33;82.11;101936.41;5033671;28;20025;-69
2022/09/19 10:43:57;;;;;;;11.23;1.83;;;;;;;14.29;94.33;101950.69;5034967;28;20424;-68
2022/09/19 10:46:35;;;;;;;9.10;1.70;;;;;;;14.17;98.75;101942.41;5035039;28;20014;-68
2022/09/19 10:49:02;;;;;;;9.27;1.80;;;;;;;14.04;92.56;101934.34;5035136;28;20103;-68
2022/09/19 10:51:36;;;;;;;8.63;1.92;;;;;;;13.90;95.04;101929.00;5034240;28;20542;-69
2022/09/19 10:54:11;;;;;;;10.27;1.88;;;;;;;13.83;100.00;101925.53;5035335;28;20467;-68
2022/09/19 10:56:40;;;;;;;12.07;2.20;;;;;;;13.86;100.00;101925.06;5024638;28;20022;-69
2022/09/19 10:59:25;;;;;;;12.57;2.40;;;;;;;13.91;100.00;101925.25;5015444;28;20034;-69
2022/09/19 11:02:29;;;;;;;9.48;1.63;;;;;;;14.10;100.00;101925.28;5030958;28;20128;-69
2022/09/19 11:05:02;;;;;;;7.45;2.00;;;;;;;14.28;96.10;101922.63;5013360;28;20282;-69
2022/09/19 11:07:41;;;;;;;9.45;1.98;;;;;;;14.45;94.41;101922.06;5035062;28;20021;-68
2022/09/19 11:10:33;;;;;;;8.73;1.73;;;;;;;14.54;84.49;101934.34;5032938;28;20065;-68
2022/09/19 11:13:12;;;;;;;12.32;1.95;;;;;;;14.50;86.80;101924.94;5034793;28;20037;-68
2022/09/19 11:15:55;;;;;;;12.00;2.05;;;;;;;14.48;83.05;101927.06;5034588;28;20289;-69
2022/09/19 11:18:49;;;;;;;9.38;2.08;;;;;;;14.48;84.42;101921.63;5034916;28;20267;-69
2022/09/19 11:21:36;;;;;;;10.05;2.20;;;;;;;14.54;80.62;101928.88;5032736;28;20038;-68
2022/09/19 11:24:16;;;;;;;8.38;1.83;;;;;;;14.52;79.02;101922.81;5015441;28;20464;-68
2022/09/19 11:27:07;;;;;;;10.73;1.67;;;;;;;14.55;85.55;101916.91;5016470;28;20040;-69
2022/09/19 11:30:00;;;;;;;13.27;1.87;;;;;;;14.60;84.97;101906.19;5015144;28;20143;-69
2022/09/19 11:32:34;;;;;;;8.40;1.92;;;;;;;14.61;85.85;101921.50;5034704;28;20263;-69
2022/09/19 11:35:25;;;;;;;12.90;2.42;;;;;;;14.60;86.89;101927.13;5034309;28;20033;-70
2022/09/19 11:38:15;;;;;;;8.27;1.97;;;;;;;14.62;86.00;101934.06;5033058;28;20021;-70
2022/09/19 11:40:59;;;;;;;7.35;1.83;;;;;;;14.41;84.15;101926.28;5032219;28;20049;-70
2022/09/19 11:43:45;;;;;;;8.07;1.70;;;;;;;14.20;95.48;101931.06;5032482;28;20037;-69
2022/09/19 11:46:49;;;;;;;12.15;2.13;;;;;;;14.14;100.00;101923.81;5034514;28;20057;-70
2022/09/19 11:49:23;;;;;;;10.15;1.70;;;;;;;14.13;100.00;101920.25;5034080;28;20419;-70
2022/09/19 11:52:02;;;;;;;6.57;1.50;;;;;;;14.15;100.00;101933.66;5033505;28;20048;-70